sensor_id;sensor_type;location;lat;lon;timestamp;P1;durP1;ratioP1;P2;durP2;ratioP2
14472;SDS011;7322;50.872;4.386;2023-03-14T00:02:51;4.47;;;3.37;;
14472;SDS011;7322;50.872;4.386;2023-03-14T00:05:19;3.70;;;3.07;;
14472;SDS011;7322;50.872;4.386;2023-03-14T00:07:49;4.43;;;3.17;;
14472;SDS011;7322;50.872;4.386;2023-03-14T00:10:20;4.20;;;3.13;;
14472;SDS011;7322;50.872;4.386;2023-03-14T00:12:57;4.03;;;3.10;;
14472;SDS011;7322;50.872;4.386;2023-03-14T00:15:25;4.60;;;3.10;;
14472;SDS011;7322;50.872;4.386;2023-03-14T00:17:55;4.07;;;3.17;;
14472;SDS011;7322;50.872;4.386;2023-03-14T00:20:23;3.30;;;2.90;;
14472;SDS011;7322;50.872;4.386;2023-03-14T00:22:51;4.30;;;3.20;;
14472;SDS011;7322;50.872;4.386;2023-03-14T00:25:31;3.80;;;3.27;;
14472;SDS011;7322;50.872;4.386;2023-03-14T00:28:10;4.57;;;3.30;;
14472;SDS011;7322;50.872;4.386;2023-03-14T00:30:46;4.00;;;3.00;;
14472;SDS011;7322;50.872;4.386;2023-03-14T00:33:28;3.17;;;2.77;;
14472;SDS011;7322;50.872;4.386;2023-03-14T00:35:58;3.33;;;3.03;;
14472;SDS011;7322;50.872;4.386;2023-03-14T00:38:29;4.63;;;3.23;;
14472;SDS011;7322;50.872;4.386;2023-03-14T00:41:31;5.10;;;3.60;;
14472;SDS011;7322;50.872;4.386;2023-03-14T00:44:02;4.63;;;3.00;;
14472;SDS011;7322;50.872;4.386;2023-03-14T00:46:38;4.43;;;3.40;;
14472;SDS011;7322;50.872;4.386;2023-03-14T00:49:12;4.17;;;3.10;;
14472;SDS011;7322;50.872;4.386;2023-03-14T00:51:51;4.83;;;3.70;;
14472;SDS011;7322;50.872;4.386;2023-03-14T00:54:20;3.83;;;3.00;;
14472;SDS011;7322;50.872;4.386;2023-03-14T00:56:52;3.60;;;3.00;;
14472;SDS011;7322;50.872;4.386;2023-03-14T00:59:36;4.13;;;3.47;;
14472;SDS011;7322;50.872;4.386;2023-03-14T01:02:03;4.93;;;3.10;;
14472;SDS011;7322;50.872;4.386;2023-03-14T01:04:36;3.77;;;3.27;;
14472;SDS011;7322;50.872;4.386;2023-03-14T01:07:05;3.43;;;3.03;;
14472;SDS011;7322;50.872;4.386;2023-03-14T01:09:41;5.20;;;3.43;;
14472;SDS011;7322;50.872;4.386;2023-03-14T01:12:09;4.33;;;3.27;;
14472;SDS011;7322;50.872;4.386;2023-03-14T01:14:46;3.50;;;3.20;;
14472;SDS011;7322;50.872;4.386;2023-03-14T01:17:17;4.30;;;3.77;;
14472;SDS011;7322;50.872;4.386;2023-03-14T01:19:50;4.13;;;3.20;;
14472;SDS011;7322;50.872;4.386;2023-03-14T01:22:21;4.13;;;3.30;;
14472;SDS011;7322;50.872;4.386;2023-03-14T01:24:52;3.80;;;3.23;;
14472;SDS011;7322;50.872;4.386;2023-03-14T01:27:20;5.50;;;3.60;;
14472;SDS011;7322;50.872;4.386;2023-03-14T01:29:52;5.37;;;3.53;;
14472;SDS011;7322;50.872;4.386;2023-03-14T01:32:21;4.40;;;3.27;;
14472;SDS011;7322;50.872;4.386;2023-03-14T01:37:20;4.93;;;3.30;;
14472;SDS011;7322;50.872;4.386;2023-03-14T01:39:48;3.40;;;2.90;;
14472;SDS011;7322;50.872;4.386;2023-03-14T01:42:18;3.83;;;3.13;;
14472;SDS011;7322;50.872;4.386;2023-03-14T01:44:47;4.37;;;3.23;;
14472;SDS011;7322;50.872;4.386;2023-03-14T01:47:36;5.37;;;3.90;;
14472;SDS011;7322;50.872;4.386;2023-03-14T01:50:06;4.03;;;3.43;;
14472;SDS011;7322;50.872;4.386;2023-03-14T01:52:39;3.70;;;3.03;;
14472;SDS011;7322;50.872;4.386;2023-03-14T01:55:17;4.77;;;3.57;;
14472;SDS011;7322;50.872;4.386;2023-03-14T01:57:54;5.23;;;3.77;;
14472;SDS011;7322;50.872;4.386;2023-03-14T02:00:29;4.57;;;3.57;;
14472;SDS011;7322;50.872;4.386;2023-03-14T02:05:55;3.33;;;3.03;;
14472;SDS011;7322;50.872;4.386;2023-03-14T02:08:30;4.00;;;3.23;;
14472;SDS011;7322;50.872;4.386;2023-03-14T02:11:01;4.17;;;3.43;;
14472;SDS011;7322;50.872;4.386;2023-03-14T02:13:32;3.77;;;3.00;;
14472;SDS011;7322;50.872;4.386;2023-03-14T02:16:04;3.50;;;3.00;;
14472;SDS011;7322;50.872;4.386;2023-03-14T02:18:43;4.03;;;3.20;;
14472;SDS011;7322;50.872;4.386;2023-03-14T02:21:17;5.03;;;3.70;;
14472;SDS011;7322;50.872;4.386;2023-03-14T02:24:04;5.60;;;3.50;;
14472;SDS011;7322;50.872;4.386;2023-03-14T02:26:43;4.30;;;3.13;;
14472;SDS011;7322;50.872;4.386;2023-03-14T02:29:40;4.87;;;3.60;;
14472;SDS011;7322;50.872;4.386;2023-03-14T02:32:17;4.37;;;3.50;;
14472;SDS011;7322;50.872;4.386;2023-03-14T02:34:47;4.23;;;3.47;;
14472;SDS011;7322;50.872;4.386;2023-03-14T02:37:19;5.17;;;3.93;;
14472;SDS011;7322;50.872;4.386;2023-03-14T02:39:50;5.10;;;3.77;;
14472;SDS011;7322;50.872;4.386;2023-03-14T02:42:27;4.83;;;3.30;;
14472;SDS011;7322;50.872;4.386;2023-03-14T02:44:59;4.40;;;3.50;;
14472;SDS011;7322;50.872;4.386;2023-03-14T02:47:46;4.17;;;3.50;;
14472;SDS011;7322;50.872;4.386;2023-03-14T02:50:18;4.13;;;3.40;;
14472;SDS011;7322;50.872;4.386;2023-03-14T02:52:48;4.63;;;3.30;;
14472;SDS011;7322;50.872;4.386;2023-03-14T02:55:20;4.43;;;3.53;;
14472;SDS011;7322;50.872;4.386;2023-03-14T02:57:52;3.83;;;3.30;;
14472;SDS011;7322;50.872;4.386;2023-03-14T03:00:25;3.77;;;3.20;;
14472;SDS011;7322;50.872;4.386;2023-03-14T03:02:54;3.47;;;3.00;;
14472;SDS011;7322;50.872;4.386;2023-03-14T03:05:24;3.43;;;3.03;;
14472;SDS011;7322;50.872;4.386;2023-03-14T03:07:55;5.00;;;3.70;;
14472;SDS011;7322;50.872;4.386;2023-03-14T03:10:26;3.57;;;3.10;;
14472;SDS011;7322;50.872;4.386;2023-03-14T03:13:01;3.80;;;3.30;;
14472;SDS011;7322;50.872;4.386;2023-03-14T03:15:38;3.63;;;3.23;;
14472;SDS011;7322;50.872;4.386;2023-03-14T03:18:10;3.97;;;3.37;;
14472;SDS011;7322;50.872;4.386;2023-03-14T03:20:40;4.27;;;3.17;;
14472;SDS011;7322;50.872;4.386;2023-03-14T03:23:15;4.10;;;3.27;;
14472;SDS011;7322;50.872;4.386;2023-03-14T03:25:47;4.80;;;3.37;;
14472;SDS011;7322;50.872;4.386;2023-03-14T03:28:23;4.17;;;3.47;;
14472;SDS011;7322;50.872;4.386;2023-03-14T03:31:05;4.40;;;3.47;;
14472;SDS011;7322;50.872;4.386;2023-03-14T03:33:40;4.20;;;3.07;;
14472;SDS011;7322;50.872;4.386;2023-03-14T03:36:20;3.33;;;2.97;;
14472;SDS011;7322;50.872;4.386;2023-03-14T03:38:55;4.93;;;3.60;;
14472;SDS011;7322;50.872;4.386;2023-03-14T03:41:24;3.70;;;3.20;;
14472;SDS011;7322;50.872;4.386;2023-03-14T03:46:35;3.93;;;3.10;;
14472;SDS011;7322;50.872;4.386;2023-03-14T03:49:03;4.40;;;3.50;;
14472;SDS011;7322;50.872;4.386;2023-03-14T03:51:33;3.30;;;2.83;;
14472;SDS011;7322;50.872;4.386;2023-03-14T03:54:03;4.27;;;3.30;;
14472;SDS011;7322;50.872;4.386;2023-03-14T03:56:45;3.97;;;3.40;;
14472;SDS011;7322;50.872;4.386;2023-03-14T03:59:16;4.13;;;3.23;;
14472;SDS011;7322;50.872;4.386;2023-03-14T04:01:47;4.27;;;3.20;;
14472;SDS011;7322;50.872;4.386;2023-03-14T04:04:17;3.87;;;3.27;;
14472;SDS011;7322;50.872;4.386;2023-03-14T04:06:47;3.83;;;3.40;;
14472;SDS011;7322;50.872;4.386;2023-03-14T04:09:17;3.47;;;3.10;;
14472;SDS011;7322;50.872;4.386;2023-03-14T04:11:46;3.60;;;3.20;;
14472;SDS011;7322;50.872;4.386;2023-03-14T04:14:16;3.40;;;2.73;;
14472;SDS011;7322;50.872;4.386;2023-03-14T04:16:47;4.37;;;3.47;;
14472;SDS011;7322;50.872;4.386;2023-03-14T04:19:16;3.83;;;3.27;;
14472;SDS011;7322;50.872;4.386;2023-03-14T04:21:43;4.37;;;3.30;;
14472;SDS011;7322;50.872;4.386;2023-03-14T04:24:15;4.00;;;3.30;;
14472;SDS011;7322;50.872;4.386;2023-03-14T04:26:44;3.73;;;3.33;;
14472;SDS011;7322;50.872;4.386;2023-03-14T04:29:25;3.87;;;3.47;;
14472;SDS011;7322;50.872;4.386;2023-03-14T04:31:57;3.50;;;3.03;;
14472;SDS011;7322;50.872;4.386;2023-03-14T04:34:24;3.40;;;2.93;;
14472;SDS011;7322;50.872;4.386;2023-03-14T04:36:53;4.10;;;3.10;;
14472;SDS011;7322;50.872;4.386;2023-03-14T04:39:28;4.30;;;3.47;;
14472;SDS011;7322;50.872;4.386;2023-03-14T04:41:56;4.40;;;3.33;;
14472;SDS011;7322;50.872;4.386;2023-03-14T04:44:26;4.50;;;3.30;;
14472;SDS011;7322;50.872;4.386;2023-03-14T04:47:08;4.00;;;3.20;;
14472;SDS011;7322;50.872;4.386;2023-03-14T04:49:40;3.93;;;3.13;;
14472;SDS011;7322;50.872;4.386;2023-03-14T04:52:20;3.80;;;2.90;;
14472;SDS011;7322;50.872;4.386;2023-03-14T04:54:56;3.90;;;3.10;;
14472;SDS011;7322;50.872;4.386;2023-03-14T04:57:30;3.23;;;2.70;;
14472;SDS011;7322;50.872;4.386;2023-03-14T05:00:12;4.77;;;3.33;;
14472;SDS011;7322;50.872;4.386;2023-03-14T05:02:48;4.57;;;3.07;;
14472;SDS011;7322;50.872;4.386;2023-03-14T05:05:16;3.90;;;2.73;;
14472;SDS011;7322;50.872;4.386;2023-03-14T05:07:44;3.67;;;3.30;;
14472;SDS011;7322;50.872;4.386;2023-03-14T05:10:17;4.03;;;3.40;;
14472;SDS011;7322;50.872;4.386;2023-03-14T05:12:46;3.37;;;3.03;;
14472;SDS011;7322;50.872;4.386;2023-03-14T05:15:14;3.67;;;3.10;;
14472;SDS011;7322;50.872;4.386;2023-03-14T05:17:49;3.53;;;2.83;;
14472;SDS011;7322;50.872;4.386;2023-03-14T05:20:27;3.47;;;3.03;;
14472;SDS011;7322;50.872;4.386;2023-03-14T05:23:02;4.47;;;3.20;;
14472;SDS011;7322;50.872;4.386;2023-03-14T05:25:33;3.77;;;3.03;;
14472;SDS011;7322;50.872;4.386;2023-03-14T05:28:04;3.97;;;2.97;;
14472;SDS011;7322;50.872;4.386;2023-03-14T05:30:36;4.00;;;2.90;;
14472;SDS011;7322;50.872;4.386;2023-03-14T05:33:09;3.57;;;2.70;;
14472;SDS011;7322;50.872;4.386;2023-03-14T05:35:37;4.13;;;3.27;;
14472;SDS011;7322;50.872;4.386;2023-03-14T05:38:09;3.37;;;2.93;;
14472;SDS011;7322;50.872;4.386;2023-03-14T05:40:39;4.10;;;2.93;;
14472;SDS011;7322;50.872;4.386;2023-03-14T05:43:06;3.87;;;2.80;;
14472;SDS011;7322;50.872;4.386;2023-03-14T05:45:36;3.97;;;3.20;;
14472;SDS011;7322;50.872;4.386;2023-03-14T05:48:04;3.83;;;2.93;;
14472;SDS011;7322;50.872;4.386;2023-03-14T05:50:35;4.10;;;3.17;;
14472;SDS011;7322;50.872;4.386;2023-03-14T05:53:05;4.47;;;3.20;;
14472;SDS011;7322;50.872;4.386;2023-03-14T05:55:37;3.97;;;2.87;;
14472;SDS011;7322;50.872;4.386;2023-03-14T05:58:19;3.60;;;3.00;;
14472;SDS011;7322;50.872;4.386;2023-03-14T06:01:05;3.47;;;2.97;;
14472;SDS011;7322;50.872;4.386;2023-03-14T06:03:35;3.40;;;3.00;;
14472;SDS011;7322;50.872;4.386;2023-03-14T06:08:50;5.17;;;3.07;;
14472;SDS011;7322;50.872;4.386;2023-03-14T06:11:20;4.00;;;3.07;;
14472;SDS011;7322;50.872;4.386;2023-03-14T06:13:49;3.73;;;3.00;;
14472;SDS011;7322;50.872;4.386;2023-03-14T06:16:18;3.17;;;2.87;;
14472;SDS011;7322;50.872;4.386;2023-03-14T06:18:57;4.07;;;3.00;;
14472;SDS011;7322;50.872;4.386;2023-03-14T06:27:17;3.47;;;2.90;;
14472;SDS011;7322;50.872;4.386;2023-03-14T06:29:46;3.60;;;2.50;;
14472;SDS011;7322;50.872;4.386;2023-03-14T06:32:21;3.73;;;3.07;;
14472;SDS011;7322;50.872;4.386;2023-03-14T06:34:51;4.10;;;2.87;;
14472;SDS011;7322;50.872;4.386;2023-03-14T06:37:33;4.63;;;2.93;;
14472;SDS011;7322;50.872;4.386;2023-03-14T06:40:04;2.63;;;2.30;;
14472;SDS011;7322;50.872;4.386;2023-03-14T06:42:48;3.47;;;2.73;;
14472;SDS011;7322;50.872;4.386;2023-03-14T06:45:17;3.03;;;2.50;;
14472;SDS011;7322;50.872;4.386;2023-03-14T06:47:49;3.47;;;2.90;;
14472;SDS011;7322;50.872;4.386;2023-03-14T06:50:25;3.13;;;2.73;;
14472;SDS011;7322;50.872;4.386;2023-03-14T06:53:05;3.67;;;2.80;;
14472;SDS011;7322;50.872;4.386;2023-03-14T06:55:33;3.47;;;2.70;;
14472;SDS011;7322;50.872;4.386;2023-03-14T06:58:02;3.30;;;2.70;;
14472;SDS011;7322;50.872;4.386;2023-03-14T07:00:34;3.47;;;2.60;;
14472;SDS011;7322;50.872;4.386;2023-03-14T07:03:01;3.50;;;2.50;;
14472;SDS011;7322;50.872;4.386;2023-03-14T07:05:29;2.87;;;2.57;;
14472;SDS011;7322;50.872;4.386;2023-03-14T07:07:59;2.93;;;2.60;;
14472;SDS011;7322;50.872;4.386;2023-03-14T07:10:28;2.83;;;2.47;;
14472;SDS011;7322;50.872;4.386;2023-03-14T07:12:56;3.10;;;2.70;;
14472;SDS011;7322;50.872;4.386;2023-03-14T07:15:23;3.43;;;2.60;;
14472;SDS011;7322;50.872;4.386;2023-03-14T07:17:56;3.53;;;2.40;;
14472;SDS011;7322;50.872;4.386;2023-03-14T07:20:26;2.53;;;2.33;;
14472;SDS011;7322;50.872;4.386;2023-03-14T07:22:55;2.90;;;2.40;;
14472;SDS011;7322;50.872;4.386;2023-03-14T07:25:25;3.23;;;2.50;;
14472;SDS011;7322;50.872;4.386;2023-03-14T07:27:56;2.83;;;2.53;;
14472;SDS011;7322;50.872;4.386;2023-03-14T07:30:26;3.47;;;2.90;;
14472;SDS011;7322;50.872;4.386;2023-03-14T07:32:58;2.40;;;2.20;;
14472;SDS011;7322;50.872;4.386;2023-03-14T07:35:27;2.27;;;1.97;;
14472;SDS011;7322;50.872;4.386;2023-03-14T07:38:11;2.70;;;2.27;;
14472;SDS011;7322;50.872;4.386;2023-03-14T07:43:29;2.87;;;2.30;;
14472;SDS011;7322;50.872;4.386;2023-03-14T07:46:00;3.30;;;2.37;;
14472;SDS011;7322;50.872;4.386;2023-03-14T07:51:25;3.30;;;2.00;;
14472;SDS011;7322;50.872;4.386;2023-03-14T07:54:02;3.37;;;2.67;;
14472;SDS011;7322;50.872;4.386;2023-03-14T07:56:35;2.80;;;1.90;;
14472;SDS011;7322;50.872;4.386;2023-03-14T08:01:59;2.00;;;1.80;;
14472;SDS011;7322;50.872;4.386;2023-03-14T08:04:26;2.90;;;2.30;;
14472;SDS011;7322;50.872;4.386;2023-03-14T08:09:23;2.53;;;2.00;;
14472;SDS011;7322;50.872;4.386;2023-03-14T08:11:52;3.13;;;2.37;;
14472;SDS011;7322;50.872;4.386;2023-03-14T08:14:19;3.53;;;2.33;;
14472;SDS011;7322;50.872;4.386;2023-03-14T08:19:18;2.53;;;2.10;;
14472;SDS011;7322;50.872;4.386;2023-03-14T08:21:46;2.30;;;1.80;;
14472;SDS011;7322;50.872;4.386;2023-03-14T08:24:15;2.13;;;1.93;;
14472;SDS011;7322;50.872;4.386;2023-03-14T08:26:43;3.43;;;2.20;;
14472;SDS011;7322;50.872;4.386;2023-03-14T08:29:11;2.27;;;2.00;;
14472;SDS011;7322;50.872;4.386;2023-03-14T08:31:41;2.90;;;1.90;;
14472;SDS011;7322;50.872;4.386;2023-03-14T08:34:10;2.27;;;1.93;;
14472;SDS011;7322;50.872;4.386;2023-03-14T08:36:37;3.27;;;2.13;;
14472;SDS011;7322;50.872;4.386;2023-03-14T08:39:06;2.10;;;1.90;;
14472;SDS011;7322;50.872;4.386;2023-03-14T08:41:34;3.60;;;2.10;;
14472;SDS011;7322;50.872;4.386;2023-03-14T08:44:05;2.13;;;1.90;;
14472;SDS011;7322;50.872;4.386;2023-03-14T08:46:34;2.87;;;2.10;;
14472;SDS011;7322;50.872;4.386;2023-03-14T08:49:04;2.83;;;2.20;;
14472;SDS011;7322;50.872;4.386;2023-03-14T08:51:32;2.73;;;1.80;;
14472;SDS011;7322;50.872;4.386;2023-03-14T08:53:59;3.03;;;2.03;;
14472;SDS011;7322;50.872;4.386;2023-03-14T08:56:27;3.57;;;1.80;;
14472;SDS011;7322;50.872;4.386;2023-03-14T08:58:54;4.10;;;1.83;;
14472;SDS011;7322;50.872;4.386;2023-03-14T09:01:27;3.23;;;1.80;;
14472;SDS011;7322;50.872;4.386;2023-03-14T09:06:26;2.90;;;2.07;;
14472;SDS011;7322;50.872;4.386;2023-03-14T09:09:01;2.30;;;1.70;;
14472;SDS011;7322;50.872;4.386;2023-03-14T09:11:30;2.00;;;1.53;;
14472;SDS011;7322;50.872;4.386;2023-03-14T09:14:04;3.07;;;2.00;;
14472;SDS011;7322;50.872;4.386;2023-03-14T09:16:31;2.20;;;1.50;;
14472;SDS011;7322;50.872;4.386;2023-03-14T09:19:11;2.13;;;1.80;;
14472;SDS011;7322;50.872;4.386;2023-03-14T09:21:40;2.93;;;1.80;;
14472;SDS011;7322;50.872;4.386;2023-03-14T09:24:08;2.63;;;1.50;;
14472;SDS011;7322;50.872;4.386;2023-03-14T09:29:27;2.33;;;1.57;;
14472;SDS011;7322;50.872;4.386;2023-03-14T09:31:56;2.67;;;1.60;;
14472;SDS011;7322;50.872;4.386;2023-03-14T09:34:28;2.80;;;1.50;;
14472;SDS011;7322;50.872;4.386;2023-03-14T09:36:55;2.37;;;1.70;;
14472;SDS011;7322;50.872;4.386;2023-03-14T09:41:54;2.93;;;1.70;;
14472;SDS011;7322;50.872;4.386;2023-03-14T09:44:25;2.70;;;1.60;;
14472;SDS011;7322;50.872;4.386;2023-03-14T09:46:56;2.07;;;1.50;;
14472;SDS011;7322;50.872;4.386;2023-03-14T09:49:32;3.00;;;1.57;;
14472;SDS011;7322;50.872;4.386;2023-03-14T09:52:03;3.90;;;1.87;;
14472;SDS011;7322;50.872;4.386;2023-03-14T09:54:45;3.97;;;1.90;;
14472;SDS011;7322;50.872;4.386;2023-03-14T09:57:17;3.67;;;1.60;;
14472;SDS011;7322;50.872;4.386;2023-03-14T09:59:47;1.43;;;1.30;;
14472;SDS011;7322;50.872;4.386;2023-03-14T10:02:23;3.27;;;1.87;;
14472;SDS011;7322;50.872;4.386;2023-03-14T10:04:55;2.50;;;1.60;;
14472;SDS011;7322;50.872;4.386;2023-03-14T10:07:27;3.07;;;1.70;;
14472;SDS011;7322;50.872;4.386;2023-03-14T10:09:56;2.30;;;1.50;;
14472;SDS011;7322;50.872;4.386;2023-03-14T10:12:30;3.50;;;1.80;;
14472;SDS011;7322;50.872;4.386;2023-03-14T10:15:01;1.93;;;1.37;;
14472;SDS011;7322;50.872;4.386;2023-03-14T10:17:38;3.43;;;1.60;;
14472;SDS011;7322;50.872;4.386;2023-03-14T10:20:15;2.37;;;1.57;;
14472;SDS011;7322;50.872;4.386;2023-03-14T10:22:59;2.07;;;1.33;;
14472;SDS011;7322;50.872;4.386;2023-03-14T10:25:28;1.97;;;1.60;;
14472;SDS011;7322;50.872;4.386;2023-03-14T10:27:57;3.83;;;1.60;;
14472;SDS011;7322;50.872;4.386;2023-03-14T10:30:34;2.43;;;1.33;;
14472;SDS011;7322;50.872;4.386;2023-03-14T10:33:10;3.13;;;1.50;;
14472;SDS011;7322;50.872;4.386;2023-03-14T10:35:46;2.83;;;1.40;;
14472;SDS011;7322;50.872;4.386;2023-03-14T10:38:19;2.87;;;1.67;;
14472;SDS011;7322;50.872;4.386;2023-03-14T10:40:50;1.90;;;1.33;;
14472;SDS011;7322;50.872;4.386;2023-03-14T10:43:21;1.57;;;1.47;;
14472;SDS011;7322;50.872;4.386;2023-03-14T10:48:33;3.43;;;1.30;;
14472;SDS011;7322;50.872;4.386;2023-03-14T10:51:18;3.07;;;1.53;;
14472;SDS011;7322;50.872;4.386;2023-03-14T10:53:55;2.23;;;1.40;;
14472;SDS011;7322;50.872;4.386;2023-03-14T10:56:25;5.20;;;2.10;;
14472;SDS011;7322;50.872;4.386;2023-03-14T11:01:41;3.67;;;1.90;;
14472;SDS011;7322;50.872;4.386;2023-03-14T11:04:20;4.40;;;1.67;;
14472;SDS011;7322;50.872;4.386;2023-03-14T11:06:59;2.47;;;1.90;;
14472;SDS011;7322;50.872;4.386;2023-03-14T11:09:32;3.43;;;2.00;;
14472;SDS011;7322;50.872;4.386;2023-03-14T11:12:11;3.17;;;1.50;;
14472;SDS011;7322;50.872;4.386;2023-03-14T11:14:54;2.13;;;1.57;;
14472;SDS011;7322;50.872;4.386;2023-03-14T11:17:27;3.43;;;1.90;;
14472;SDS011;7322;50.872;4.386;2023-03-14T11:20:08;2.87;;;1.83;;
14472;SDS011;7322;50.872;4.386;2023-03-14T11:22:53;3.37;;;2.13;;
14472;SDS011;7322;50.872;4.386;2023-03-14T11:25:26;4.40;;;2.10;;
14472;SDS011;7322;50.872;4.386;2023-03-14T11:28:01;3.30;;;1.90;;
14472;SDS011;7322;50.872;4.386;2023-03-14T11:30:37;3.00;;;1.80;;
14472;SDS011;7322;50.872;4.386;2023-03-14T11:33:13;3.47;;;1.97;;
14472;SDS011;7322;50.872;4.386;2023-03-14T11:35:43;2.87;;;1.87;;
14472;SDS011;7322;50.872;4.386;2023-03-14T11:38:22;3.30;;;2.00;;
14472;SDS011;7322;50.872;4.386;2023-03-14T11:41:00;5.53;;;2.07;;
14472;SDS011;7322;50.872;4.386;2023-03-14T11:43:29;2.83;;;2.00;;
14472;SDS011;7322;50.872;4.386;2023-03-14T11:46:03;3.73;;;2.10;;
14472;SDS011;7322;50.872;4.386;2023-03-14T11:48:39;3.57;;;2.10;;
14472;SDS011;7322;50.872;4.386;2023-03-14T11:51:13;3.90;;;2.03;;
14472;SDS011;7322;50.872;4.386;2023-03-14T11:53:50;2.90;;;2.20;;
14472;SDS011;7322;50.872;4.386;2023-03-14T11:56:31;4.23;;;2.17;;
14472;SDS011;7322;50.872;4.386;2023-03-14T11:59:12;3.33;;;2.20;;
14472;SDS011;7322;50.872;4.386;2023-03-14T12:01:50;4.23;;;2.40;;
14472;SDS011;7322;50.872;4.386;2023-03-14T12:04:29;2.77;;;2.20;;
14472;SDS011;7322;50.872;4.386;2023-03-14T12:07:08;2.93;;;2.20;;
14472;SDS011;7322;50.872;4.386;2023-03-14T12:09:46;4.40;;;2.53;;
14472;SDS011;7322;50.872;4.386;2023-03-14T12:12:16;2.90;;;2.27;;
14472;SDS011;7322;50.872;4.386;2023-03-14T12:17:23;7.67;;;4.33;;
14472;SDS011;7322;50.872;4.386;2023-03-14T12:20:00;6.70;;;4.00;;
14472;SDS011;7322;50.872;4.386;2023-03-14T12:22:33;7.93;;;4.33;;
14472;SDS011;7322;50.872;4.386;2023-03-14T12:25:13;6.60;;;4.13;;
14472;SDS011;7322;50.872;4.386;2023-03-14T12:27:45;5.43;;;3.77;;
14472;SDS011;7322;50.872;4.386;2023-03-14T12:30:23;4.90;;;3.70;;
14472;SDS011;7322;50.872;4.386;2023-03-14T12:35:48;6.07;;;3.80;;
14472;SDS011;7322;50.872;4.386;2023-03-14T12:38:23;4.97;;;3.83;;
14472;SDS011;7322;50.872;4.386;2023-03-14T12:40:58;5.37;;;3.33;;
14472;SDS011;7322;50.872;4.386;2023-03-14T12:43:33;4.73;;;3.27;;
14472;SDS011;7322;50.872;4.386;2023-03-14T12:49:03;4.17;;;3.30;;
14472;SDS011;7322;50.872;4.386;2023-03-14T12:51:36;3.70;;;2.93;;
14472;SDS011;7322;50.872;4.386;2023-03-14T12:54:18;5.43;;;3.00;;
14472;SDS011;7322;50.872;4.386;2023-03-14T12:57:15;4.57;;;2.97;;
14472;SDS011;7322;50.872;4.386;2023-03-14T12:59:55;6.07;;;3.13;;
14472;SDS011;7322;50.872;4.386;2023-03-14T13:02:38;4.27;;;3.23;;
14472;SDS011;7322;50.872;4.386;2023-03-14T13:05:11;4.27;;;2.87;;
14472;SDS011;7322;50.872;4.386;2023-03-14T13:10:38;3.90;;;2.80;;
14472;SDS011;7322;50.872;4.386;2023-03-14T13:13:16;5.83;;;2.63;;
14472;SDS011;7322;50.872;4.386;2023-03-14T13:15:47;4.30;;;2.90;;
14472;SDS011;7322;50.872;4.386;2023-03-14T13:18:17;10.03;;;2.90;;
14472;SDS011;7322;50.872;4.386;2023-03-14T13:20:51;4.63;;;2.80;;
14472;SDS011;7322;50.872;4.386;2023-03-14T13:23:21;10.40;;;3.27;;
14472;SDS011;7322;50.872;4.386;2023-03-14T13:25:50;6.80;;;3.23;;
14472;SDS011;7322;50.872;4.386;2023-03-14T13:28:19;6.53;;;2.87;;
14472;SDS011;7322;50.872;4.386;2023-03-14T13:30:47;6.37;;;2.83;;
14472;SDS011;7322;50.872;4.386;2023-03-14T13:33:16;9.77;;;2.83;;
14472;SDS011;7322;50.872;4.386;2023-03-14T13:35:49;4.40;;;2.60;;
14472;SDS011;7322;50.872;4.386;2023-03-14T13:38:23;5.80;;;2.40;;
14472;SDS011;7322;50.872;4.386;2023-03-14T13:40:54;6.20;;;2.50;;
14472;SDS011;7322;50.872;4.386;2023-03-14T13:43:27;6.83;;;2.60;;
14472;SDS011;7322;50.872;4.386;2023-03-14T13:46:00;4.90;;;2.67;;
14472;SDS011;7322;50.872;4.386;2023-03-14T13:48:32;3.30;;;2.20;;
14472;SDS011;7322;50.872;4.386;2023-03-14T13:51:03;3.50;;;2.33;;
14472;SDS011;7322;50.872;4.386;2023-03-14T13:53:32;3.60;;;2.50;;
14472;SDS011;7322;50.872;4.386;2023-03-14T13:56:09;6.63;;;2.33;;
14472;SDS011;7322;50.872;4.386;2023-03-14T13:58:40;4.87;;;2.10;;
14472;SDS011;7322;50.872;4.386;2023-03-14T14:01:10;4.67;;;2.17;;
14472;SDS011;7322;50.872;4.386;2023-03-14T14:03:42;4.60;;;2.40;;
14472;SDS011;7322;50.872;4.386;2023-03-14T14:06:18;5.93;;;2.60;;
14472;SDS011;7322;50.872;4.386;2023-03-14T14:08:52;3.53;;;2.13;;
14472;SDS011;7322;50.872;4.386;2023-03-14T14:11:21;3.70;;;2.20;;
14472;SDS011;7322;50.872;4.386;2023-03-14T14:13:58;4.83;;;2.13;;
14472;SDS011;7322;50.872;4.386;2023-03-14T14:16:31;3.80;;;2.33;;
14472;SDS011;7322;50.872;4.386;2023-03-14T14:18:59;3.33;;;2.20;;
14472;SDS011;7322;50.872;4.386;2023-03-14T14:21:28;3.13;;;1.90;;
14472;SDS011;7322;50.872;4.386;2023-03-14T14:23:57;2.30;;;1.90;;
14472;SDS011;7322;50.872;4.386;2023-03-14T14:26:25;3.80;;;2.17;;
14472;SDS011;7322;50.872;4.386;2023-03-14T14:29:02;2.77;;;2.20;;
14472;SDS011;7322;50.872;4.386;2023-03-14T14:31:31;5.07;;;2.20;;
14472;SDS011;7322;50.872;4.386;2023-03-14T14:34:04;3.40;;;2.20;;
14472;SDS011;7322;50.872;4.386;2023-03-14T14:36:44;3.23;;;2.03;;
14472;SDS011;7322;50.872;4.386;2023-03-14T14:39:16;3.60;;;2.23;;
14472;SDS011;7322;50.872;4.386;2023-03-14T14:41:47;3.00;;;2.10;;
14472;SDS011;7322;50.872;4.386;2023-03-14T14:44:18;4.33;;;2.53;;
14472;SDS011;7322;50.872;4.386;2023-03-14T14:46:54;2.80;;;1.80;;
14472;SDS011;7322;50.872;4.386;2023-03-14T14:49:28;3.40;;;2.13;;
14472;SDS011;7322;50.872;4.386;2023-03-14T14:52:00;3.37;;;2.03;;
14472;SDS011;7322;50.872;4.386;2023-03-14T14:54:34;4.30;;;1.60;;
14472;SDS011;7322;50.872;4.386;2023-03-14T14:57:06;3.73;;;1.90;;
14472;SDS011;7322;50.872;4.386;2023-03-14T14:59:55;4.47;;;2.07;;
14472;SDS011;7322;50.872;4.386;2023-03-14T15:02:28;3.43;;;2.03;;
14472;SDS011;7322;50.872;4.386;2023-03-14T15:05:00;3.77;;;2.17;;
14472;SDS011;7322;50.872;4.386;2023-03-14T15:07:28;4.13;;;2.10;;
14472;SDS011;7322;50.872;4.386;2023-03-14T15:09:56;3.20;;;2.13;;
14472;SDS011;7322;50.872;4.386;2023-03-14T15:12:22;3.10;;;1.90;;
14472;SDS011;7322;50.872;4.386;2023-03-14T15:14:50;2.93;;;2.00;;
14472;SDS011;7322;50.872;4.386;2023-03-14T15:17:22;2.57;;;1.80;;
14472;SDS011;7322;50.872;4.386;2023-03-14T15:19:50;4.53;;;1.80;;
14472;SDS011;7322;50.872;4.386;2023-03-14T15:22:18;5.03;;;1.83;;
14472;SDS011;7322;50.872;4.386;2023-03-14T15:24:48;3.27;;;1.87;;
14472;SDS011;7322;50.872;4.386;2023-03-14T15:27:16;3.07;;;2.03;;
14472;SDS011;7322;50.872;4.386;2023-03-14T15:29:45;5.90;;;2.00;;
14472;SDS011;7322;50.872;4.386;2023-03-14T15:32:23;2.33;;;1.70;;
14472;SDS011;7322;50.872;4.386;2023-03-14T15:34:52;2.97;;;1.87;;
14472;SDS011;7322;50.872;4.386;2023-03-14T15:37:25;1.83;;;1.43;;
14472;SDS011;7322;50.872;4.386;2023-03-14T15:39:53;2.57;;;1.60;;
14472;SDS011;7322;50.872;4.386;2023-03-14T15:42:24;3.87;;;1.70;;
14472;SDS011;7322;50.872;4.386;2023-03-14T15:51:07;5.53;;;1.73;;
14472;SDS011;7322;50.872;4.386;2023-03-14T15:53:35;3.33;;;1.73;;
14472;SDS011;7322;50.872;4.386;2023-03-14T15:56:16;3.70;;;1.60;;
14472;SDS011;7322;50.872;4.386;2023-03-14T15:58:51;3.43;;;1.50;;
14472;SDS011;7322;50.872;4.386;2023-03-14T16:01:19;3.27;;;1.53;;
14472;SDS011;7322;50.872;4.386;2023-03-14T16:03:46;3.73;;;1.60;;
14472;SDS011;7322;50.872;4.386;2023-03-14T16:06:19;5.17;;;1.87;;
14472;SDS011;7322;50.872;4.386;2023-03-14T16:08:46;2.70;;;1.67;;
14472;SDS011;7322;50.872;4.386;2023-03-14T16:11:15;3.37;;;1.53;;
14472;SDS011;7322;50.872;4.386;2023-03-14T16:13:42;2.57;;;1.70;;
14472;SDS011;7322;50.872;4.386;2023-03-14T16:16:11;3.80;;;1.77;;
14472;SDS011;7322;50.872;4.386;2023-03-14T16:18:38;3.40;;;1.70;;
14472;SDS011;7322;50.872;4.386;2023-03-14T16:21:07;4.63;;;1.73;;
14472;SDS011;7322;50.872;4.386;2023-03-14T16:23:39;3.87;;;1.70;;
14472;SDS011;7322;50.872;4.386;2023-03-14T16:26:07;3.70;;;1.60;;
14472;SDS011;7322;50.872;4.386;2023-03-14T16:28:36;1.90;;;1.50;;
14472;SDS011;7322;50.872;4.386;2023-03-14T16:31:12;3.10;;;1.67;;
14472;SDS011;7322;50.872;4.386;2023-03-14T16:36:27;2.37;;;1.33;;
14472;SDS011;7322;50.872;4.386;2023-03-14T16:38:58;3.63;;;1.40;;